Time;durP1;ratioP1;P1;durP2;ratioP2;P2;SDS_P1;SDS_P2;PMS_P1;PMS_P2;Temp;Humidity;BMP_temperature;BMP_pressure;BME280_temperature;BME280_humidity;BME280_pressure;Samples;Min_cycle;Max_cycle;Signal;HPM_P1;HPM_P2
2022/05/09 00:00:07;;;;;;;14.05;3.35;;;9.60;99.90;;;;;;5090037;28;20408;-78
2022/05/09 00:02:32;;;;;;;14.30;4.05;;;9.50;99.90;;;;;;5108537;28;20443;-79
2022/05/09 00:04:58;;;;;;;16.00;3.72;;;9.50;99.90;;;;;;5107486;28;20434;-78
2022/05/09 00:07:24;;;;;;;16.30;3.73;;;9.40;99.90;;;;;;5089067;28;20472;-78
2022/05/09 00:09:49;;;;;;;16.00;3.22;;;9.40;99.90;;;;;;5107207;28;20439;-78
2022/05/09 00:12:15;;;;;;;14.63;3.77;;;9.40;99.90;;;;;;5106249;28;20428;-78
2022/05/09 00:14:41;;;;;;;21.95;4.40;;;9.40;99.90;;;;;;5089249;28;20457;-78
2022/05/09 00:17:06;;;;;;;12.25;3.20;;;9.40;99.90;;;;;;5089168;28;20411;-78
2022/05/09 00:19:32;;;;;;;20.47;3.57;;;9.40;99.90;;;;;;5089438;28;20407;-78
2022/05/09 00:21:58;;;;;;;16.93;4.10;;;9.40;99.90;;;;;;5106825;28;20869;-78
2022/05/09 00:24:24;;;;;;;17.33;4.22;;;9.30;99.90;;;;;;5107240;28;20397;-78
2022/05/09 00:26:52;;;;;;;20.00;3.70;;;9.30;99.90;;;;;;5085676;28;20749;-79
2022/05/09 00:29:20;;;;;;;11.63;3.42;;;9.20;99.90;;;;;;5086541;28;20398;-79
2022/05/09 00:31:49;;;;;;;15.38;3.63;;;9.20;99.90;;;;;;5090904;28;20425;-78
2022/05/09 00:34:17;;;;;;;16.40;3.67;;;9.20;99.90;;;;;;5090624;28;20895;-77
2022/05/09 00:36:44;;;;;;;14.55;3.78;;;9.10;99.90;;;;;;5090641;28;20398;-79
2022/05/09 00:39:10;;;;;;;12.95;3.65;;;9.10;99.90;;;;;;5089424;28;20956;-78
2022/05/09 00:41:37;;;;;;;13.48;3.63;;;9.10;99.90;;;;;;5089423;28;20418;-78
2022/05/09 00:44:07;;;;;;;16.63;4.18;;;9.10;99.90;;;;;;5089136;28;20402;-78
2022/05/09 00:46:33;;;;;;;15.00;3.75;;;9.00;99.90;;;;;;5088725;28;20413;-79
2022/05/09 00:49:14;;;;;;;14.73;4.07;;;9.00;99.90;;;;;;5089047;28;20433;-78
2022/05/09 00:51:43;;;;;;;15.45;4.88;;;8.90;99.90;;;;;;5089079;28;20437;-79
2022/05/09 00:54:09;;;;;;;14.75;4.50;;;8.90;99.90;;;;;;5088616;28;21172;-78
2022/05/09 00:56:49;;;;;;;16.42;4.82;;;8.90;99.90;;;;;;5090381;28;20402;-79
2022/05/09 00:59:17;;;;;;;17.25;4.80;;;8.90;99.90;;;;;;5088984;28;20450;-78
2022/05/09 01:01:46;;;;;;;13.77;4.30;;;8.80;99.90;;;;;;5090454;28;20398;-79
2022/05/09 01:04:18;;;;;;;17.38;5.00;;;8.80;99.90;;;;;;5088992;28;20418;-79
2022/05/09 01:06:43;;;;;;;15.65;4.47;;;8.70;99.90;;;;;;5090239;28;20402;-78
2022/05/09 01:09:12;;;;;;;15.50;4.70;;;8.70;99.90;;;;;;5089985;28;20402;-79
2022/05/09 01:11:42;;;;;;;15.63;4.07;;;8.70;99.90;;;;;;5088607;28;20465;-79
2022/05/09 01:14:13;;;;;;;14.68;4.63;;;8.60;99.90;;;;;;5089699;28;20410;-79
2022/05/09 01:16:39;;;;;;;12.80;4.50;;;8.60;99.90;;;;;;5088885;28;20402;-78
2022/05/09 01:19:33;;;;;;;15.83;4.63;;;8.60;99.90;;;;;;5090237;28;20428;-78
2022/05/09 01:22:00;;;;;;;15.13;4.87;;;8.50;99.90;;;;;;5090189;28;20432;-78
2022/05/09 01:24:27;;;;;;;16.58;4.95;;;8.50;99.90;;;;;;5089961;28;20402;-78
2022/05/09 01:26:53;;;;;;;14.90;4.90;;;8.40;99.90;;;;;;5102287;28;20400;-78
2022/05/09 01:29:31;;;;;;;14.10;4.88;;;8.40;99.90;;;;;;5110113;28;20479;-78
2022/05/09 01:31:57;;;;;;;15.75;5.22;;;8.40;99.90;;;;;;5109723;28;20845;-79
2022/05/09 01:34:23;;;;;;;17.30;5.03;;;8.40;99.90;;;;;;5110132;28;20395;-78
2022/05/09 01:36:57;;;;;;;16.33;5.00;;;8.40;99.90;;;;;;5110320;28;20941;-78
2022/05/09 01:39:24;;;;;;;19.60;5.03;;;8.40;99.90;;;;;;5109780;28;20758;-78
2022/05/09 01:41:51;;;;;;;14.35;5.05;;;8.30;99.90;;;;;;5109128;28;20557;-78
2022/05/09 01:44:17;;;;;;;16.63;5.05;;;8.30;99.90;;;;;;5109458;28;20396;-78
2022/05/09 01:49:29;;;;;;;15.05;5.40;;;8.20;99.90;;;;;;5110411;28;20400;-78
2022/05/09 01:51:55;;;;;;;16.30;5.00;;;8.20;99.90;;;;;;5109737;28;20428;-78
2022/05/09 01:54:21;;;;;;;15.30;5.05;;;8.10;99.90;;;;;;5059183;28;20430;-78
2022/05/09 01:56:47;;;;;;;19.27;4.93;;;8.10;99.90;;;;;;5092393;28;20400;-78
2022/05/09 01:59:13;;;;;;;17.35;4.97;;;8.00;99.90;;;;;;5110373;28;20408;-78
2022/05/09 02:01:49;;;;;;;18.40;5.05;;;8.00;99.90;;;;;;5092131;28;20397;-78
2022/05/09 02:04:15;;;;;;;13.90;4.68;;;8.00;99.90;;;;;;5109871;28;20396;-78
2022/05/09 02:06:40;;;;;;;16.53;4.30;;;8.00;99.90;;;;;;5110358;28;20897;-78
2022/05/09 02:09:06;;;;;;;17.60;5.03;;;8.00;99.90;;;;;;5090167;28;20404;-78
2022/05/09 02:11:32;;;;;;;13.52;4.60;;;7.90;99.90;;;;;;5080931;28;20430;-78
2022/05/09 02:13:58;;;;;;;16.25;4.93;;;7.90;99.90;;;;;;5104269;28;20435;-78
2022/05/09 02:16:23;;;;;;;15.43;4.50;;;7.90;99.90;;;;;;5087626;28;20402;-78
2022/05/09 02:18:49;;;;;;;15.90;5.13;;;7.90;99.90;;;;;;5092772;28;20416;-78
2022/05/09 02:21:15;;;;;;;12.13;4.50;;;7.90;99.90;;;;;;5108118;28;20400;-78
2022/05/09 02:23:42;;;;;;;14.93;4.38;;;7.80;99.90;;;;;;5073054;28;20434;-78
2022/05/09 02:26:08;;;;;;;14.75;4.50;;;7.80;99.90;;;;;;5108931;28;20430;-78
2022/05/09 02:28:34;;;;;;;15.35;4.57;;;7.80;99.90;;;;;;5108970;28;20400;-78
2022/05/09 02:31:00;;;;;;;13.95;4.72;;;7.70;99.90;;;;;;5108661;28;20425;-79
2022/05/09 02:33:26;;;;;;;11.30;4.32;;;7.70;99.90;;;;;;5108628;28;20396;-78
2022/05/09 02:35:51;;;;;;;12.27;4.57;;;7.70;99.90;;;;;;5090279;28;20404;-78
2022/05/09 02:38:17;;;;;;;15.87;4.37;;;7.60;99.90;;;;;;5108404;28;20846;-78
2022/05/09 02:40:43;;;;;;;13.13;4.70;;;7.60;99.90;;;;;;5108949;28;20406;-78
2022/05/09 02:43:09;;;;;;;15.27;4.47;;;7.60;99.90;;;;;;5107072;28;20412;-78
2022/05/09 02:45:34;;;;;;;11.95;4.53;;;7.60;99.90;;;;;;5107742;28;20422;-77
2022/05/09 02:48:00;;;;;;;14.57;4.70;;;7.60;99.90;;;;;;5108402;28;20434;-78
2022/05/09 02:50:27;;;;;;;12.77;4.10;;;7.50;99.90;;;;;;5108905;28;20468;-78
2022/05/09 02:52:54;;;;;;;12.60;4.45;;;7.50;99.90;;;;;;5089728;28;20450;-78
2022/05/09 02:55:21;;;;;;;12.00;3.90;;;7.50;99.90;;;;;;5108321;28;20428;-78
2022/05/09 02:57:47;;;;;;;11.45;4.10;;;7.50;99.90;;;;;;5109431;28;20479;-78
2022/05/09 03:00:23;;;;;;;11.02;4.07;;;7.40;99.90;;;;;;5109037;28;20430;-78
2022/05/09 03:05:36;;;;;;;11.82;4.07;;;7.30;99.90;;;;;;5109294;28;20396;-78
2022/05/09 03:08:02;;;;;;;14.70;4.20;;;7.30;99.90;;;;;;5109040;28;20399;-78
2022/05/09 03:10:28;;;;;;;9.83;3.50;;;7.30;99.90;;;;;;5090567;28;20401;-78
2022/05/09 03:13:03;;;;;;;8.20;3.45;;;7.30;99.90;;;;;;5090710;28;20477;-78
2022/05/09 03:15:30;;;;;;;8.98;3.65;;;7.30;99.90;;;;;;5090480;28;20416;-78
2022/05/09 03:17:56;;;;;;;10.83;3.30;;;7.20;99.90;;;;;;5109097;28;20401;-78
2022/05/09 03:20:22;;;;;;;10.43;3.60;;;7.20;99.90;;;;;;5090622;28;20465;-78
2022/05/09 03:22:48;;;;;;;9.00;3.40;;;7.20;99.90;;;;;;5107188;28;20933;-78
2022/05/09 03:25:15;;;;;;;8.48;3.13;;;7.10;99.90;;;;;;5108264;28;20461;-78
2022/05/09 03:27:40;;;;;;;9.32;3.05;;;7.10;99.90;;;;;;5108787;28;20973;-78
2022/05/09 03:30:08;;;;;;;8.57;2.90;;;7.10;99.90;;;;;;5108975;28;20422;-78
2022/05/09 03:32:35;;;;;;;8.85;3.03;;;7.10;99.90;;;;;;5086844;28;20436;-78
2022/05/09 03:35:02;;;;;;;12.75;3.60;;;7.10;99.90;;;;;;5086588;28;20459;-78
2022/05/09 03:37:29;;;;;;;11.60;3.30;;;7.10;99.90;;;;;;5088594;28;20787;-78
2022/05/09 03:39:54;;;;;;;9.85;3.53;;;7.10;99.90;;;;;;5098494;28;20785;-78
2022/05/09 03:42:20;;;;;;;10.80;3.83;;;7.10;99.90;;;;;;5108259;28;20407;-78
2022/05/09 03:44:46;;;;;;;12.77;4.00;;;7.10;99.90;;;;;;5108488;28;20442;-78
2022/05/09 03:47:11;;;;;;;11.30;3.85;;;7.10;99.90;;;;;;5089945;28;20791;-78
2022/05/09 03:49:37;;;;;;;9.55;3.72;;;7.10;99.90;;;;;;5108475;28;20805;-78
2022/05/09 03:52:03;;;;;;;13.73;4.57;;;7.00;99.90;;;;;;5108292;28;20424;-78
2022/05/09 03:54:28;;;;;;;8.98;3.95;;;7.00;99.90;;;;;;5108470;28;20408;-78
2022/05/09 03:56:54;;;;;;;11.40;4.20;;;7.10;99.90;;;;;;5107788;28;20389;-78
2022/05/09 03:59:19;;;;;;;13.27;4.43;;;7.00;99.90;;;;;;5108786;28;20811;-78
2022/05/09 04:01:46;;;;;;;12.27;4.43;;;7.00;99.90;;;;;;5108327;28;20400;-78
2022/05/09 04:04:11;;;;;;;11.75;4.82;;;7.00;99.90;;;;;;5107838;28;20404;-78
2022/05/09 04:06:37;;;;;;;12.07;5.10;;;7.10;99.90;;;;;;5108109;28;20403;-78
2022/05/09 04:09:03;;;;;;;12.40;5.10;;;7.00;99.90;;;;;;5089867;28;20404;-78
2022/05/09 04:11:28;;;;;;;12.20;5.20;;;7.00;99.90;;;;;;5108068;28;20848;-78
2022/05/09 04:13:54;;;;;;;11.63;5.20;;;7.10;99.90;;;;;;5107935;28;20400;-78
2022/05/09 04:19:04;;;;;;;10.97;4.97;;;7.10;99.90;;;;;;5107846;28;20492;-78
2022/05/09 04:21:30;;;;;;;11.10;4.95;;;7.10;99.90;;;;;;5108384;28;20504;-78
2022/05/09 04:23:58;;;;;;;10.43;4.68;;;7.10;99.90;;;;;;5107733;28;20393;-77
2022/05/09 04:26:30;;;;;;;15.38;5.68;;;7.10;99.90;;;;;;5107974;28;20958;-78
2022/05/09 04:28:55;;;;;;;20.52;7.50;;;7.20;99.90;;;;;;5089567;28;20408;-78
2022/05/09 04:31:22;;;;;;;20.60;7.97;;;7.20;99.90;;;;;;5107123;28;20426;-78
2022/05/09 04:33:48;;;;;;;19.65;8.18;;;7.30;99.90;;;;;;5106137;28;20416;-78
2022/05/09 04:36:14;;;;;;;20.60;9.17;;;7.30;99.90;;;;;;5107569;28;20392;-78
2022/05/09 04:38:41;;;;;;;19.70;9.00;;;7.30;99.90;;;;;;5107874;28;20412;-78
2022/05/09 04:41:08;;;;;;;20.65;8.93;;;7.30;99.90;;;;;;5107758;28;20396;-78
2022/05/09 04:43:36;;;;;;;19.92;8.82;;;7.40;99.90;;;;;;5107507;28;20396;-78
2022/05/09 04:46:03;;;;;;;19.80;9.37;;;7.50;99.90;;;;;;5089305;28;20388;-78
2022/05/09 04:48:29;;;;;;;19.67;9.65;;;7.60;99.90;;;;;;5107685;28;20805;-78
2022/05/09 04:50:55;;;;;;;19.80;8.75;;;7.70;99.90;;;;;;5107869;28;20488;-78
2022/05/09 04:53:21;;;;;;;19.73;7.67;;;7.80;99.90;;;;;;5107410;28;20431;-78
2022/05/09 04:55:47;;;;;;;14.07;7.07;;;7.90;99.90;;;;;;5108177;28;21221;-78
2022/05/09 04:58:18;;;;;;;18.05;8.00;;;7.90;99.90;;;;;;5107758;28;20428;-78
2022/05/09 05:00:44;;;;;;;13.63;6.70;;;8.00;99.90;;;;;;5107582;28;20453;-78
2022/05/09 05:03:10;;;;;;;15.25;6.97;;;8.10;99.90;;;;;;5107623;28;20483;-78
2022/05/09 05:05:37;;;;;;;15.35;7.15;;;8.20;99.90;;;;;;5089529;28;20525;-78
2022/05/09 05:08:03;;;;;;;13.88;7.20;;;8.30;99.90;;;;;;5107697;28;20444;-78
2022/05/09 05:10:30;;;;;;;15.87;8.27;;;8.40;99.90;;;;;;5089550;28;20400;-79
2022/05/09 05:12:57;;;;;;;18.77;8.43;;;8.40;99.90;;;;;;5107247;28;20473;-78
2022/05/09 05:15:23;;;;;;;20.30;8.45;;;8.50;99.90;;;;;;5107625;28;20519;-78
2022/05/09 05:17:49;;;;;;;18.40;8.40;;;8.60;99.90;;;;;;5110209;28;20541;-78
2022/05/09 05:20:15;;;;;;;20.00;8.30;;;8.70;99.90;;;;;;5111300;28;20400;-78
2022/05/09 05:22:49;;;;;;;19.58;8.45;;;8.80;99.90;;;;;;5093196;28;20433;-79
2022/05/09 05:25:18;;;;;;;24.80;10.15;;;8.80;99.90;;;;;;5110777;28;20405;-78
2022/05/09 05:27:44;;;;;;;22.90;10.60;;;8.90;99.90;;;;;;5092716;28;20400;-78
2022/05/09 05:30:10;;;;;;;22.05;11.23;;;9.00;99.90;;;;;;5092922;28;20864;-78
2022/05/09 05:32:37;;;;;;;23.92;10.30;;;9.10;99.90;;;;;;5092537;28;20467;-78
2022/05/09 05:35:09;;;;;;;25.48;10.35;;;9.20;99.90;;;;;;5110813;28;20946;-79
2022/05/09 05:37:35;;;;;;;22.58;8.95;;;9.30;99.90;;;;;;5092669;28;20453;-79
2022/05/09 05:40:01;;;;;;;22.13;8.90;;;9.40;99.90;;;;;;5092232;28;20483;-79
2022/05/09 05:42:27;;;;;;;23.42;9.30;;;9.50;99.90;;;;;;5110751;28;20400;-79
2022/05/09 05:44:53;;;;;;;22.83;8.68;;;9.60;99.90;;;;;;5075543;28;20428;-77
2022/05/09 05:47:21;;;;;;;23.08;8.57;;;9.60;99.90;;;;;;5092347;28;20447;-77
2022/05/09 05:49:46;;;;;;;24.08;8.65;;;9.70;99.90;;;;;;5111686;27;20416;-78
2022/05/09 05:52:13;;;;;;;18.27;8.38;;;9.80;99.90;;;;;;5102112;28;20480;-78
2022/05/09 05:54:41;;;;;;;23.88;7.93;;;9.90;99.90;;;;;;5110050;28;20416;-78
2022/05/09 05:57:19;;;;;;;19.77;8.02;;;10.00;99.90;;;;;;5110460;28;20444;-79
2022/05/09 05:59:55;;;;;;;21.48;8.25;;;10.10;99.90;;;;;;5110678;28;20392;-78
2022/05/09 06:02:22;;;;;;;19.02;7.25;;;10.10;99.90;;;;;;5110688;28;20412;-79
2022/05/09 06:04:48;;;;;;;21.63;7.23;;;10.20;99.90;;;;;;5109514;28;20392;-79
2022/05/09 06:07:14;;;;;;;21.52;8.25;;;10.20;99.90;;;;;;5108880;28;20484;-79
2022/05/09 06:09:46;;;;;;;21.50;8.80;;;10.30;99.90;;;;;;5110386;28;20400;-79
2022/05/09 06:12:14;;;;;;;25.40;8.48;;;10.40;99.90;;;;;;5109219;28;20423;-79
2022/05/09 06:14:40;;;;;;;24.55;9.13;;;10.40;99.90;;;;;;5109014;28;20430;-78
2022/05/09 06:17:08;;;;;;;22.77;6.93;;;10.50;99.90;;;;;;5108693;28;20731;-79
2022/05/09 06:19:34;;;;;;;19.33;7.20;;;10.50;99.90;;;;;;5091130;28;20481;-79
2022/05/09 06:22:01;;;;;;;19.17;6.78;;;10.60;99.90;;;;;;5108870;28;20393;-79
2022/05/09 06:24:27;;;;;;;21.50;6.73;;;10.70;99.90;;;;;;5108647;28;20395;-78
2022/05/09 06:26:52;;;;;;;17.95;6.40;;;10.80;99.90;;;;;;5108781;28;20476;-79
2022/05/09 06:29:18;;;;;;;17.73;6.20;;;10.80;99.90;;;;;;5108731;28;20475;-79
2022/05/09 06:31:45;;;;;;;17.13;6.07;;;10.80;99.90;;;;;;5108572;28;20424;-79
2022/05/09 06:34:13;;;;;;;21.27;6.10;;;10.90;99.90;;;;;;5108295;28;20411;-78
2022/05/09 06:36:39;;;;;;;15.95;5.80;;;10.90;99.90;;;;;;5108786;28;20396;-78
2022/05/09 06:39:07;;;;;;;15.43;5.60;;;11.00;99.90;;;;;;5108455;28;20446;-79
2022/05/09 06:41:32;;;;;;;17.40;5.82;;;11.10;99.90;;;;;;5107501;28;20414;-78
2022/05/09 06:43:58;;;;;;;16.43;5.53;;;11.10;99.90;;;;;;5090101;28;20867;-78
2022/05/09 06:46:25;;;;;;;17.80;6.40;;;11.20;99.90;;;;;;5108413;28;20484;-79
2022/05/09 06:48:50;;;;;;;16.65;5.90;;;11.20;99.90;;;;;;5109209;28;20497;-79
2022/05/09 06:51:16;;;;;;;13.90;6.07;;;11.30;99.90;;;;;;5108690;28;20786;-79
2022/05/09 06:53:42;;;;;;;15.33;5.87;;;11.30;99.90;;;;;;5109723;28;20412;-79
2022/05/09 06:56:09;;;;;;;14.82;5.80;;;11.40;99.90;;;;;;5109766;28;20399;-79
2022/05/09 06:58:36;;;;;;;16.23;5.87;;;11.40;99.90;;;;;;5109671;28;20898;-79
2022/05/09 07:01:15;;;;;;;15.00;5.68;;;11.40;99.90;;;;;;5109405;28;20389;-79
2022/05/09 07:03:41;;;;;;;16.38;5.72;;;11.50;99.90;;;;;;5109699;28;20396;-79
2022/05/09 07:06:06;;;;;;;17.20;6.25;;;11.60;99.90;;;;;;5090758;28;20482;-79
2022/05/09 07:08:33;;;;;;;16.10;5.73;;;11.70;99.90;;;;;;5109490;28;20432;-79
2022/05/09 07:10:59;;;;;;;16.23;5.72;;;11.70;99.90;;;;;;5109422;28;20905;-79
2022/05/09 07:13:25;;;;;;;17.90;5.97;;;11.80;99.90;;;;;;5074275;28;20404;-78
2022/05/09 07:15:50;;;;;;;12.70;5.90;;;11.80;99.90;;;;;;5090872;28;20404;-79
2022/05/09 07:18:16;;;;;;;14.68;5.55;;;11.90;99.90;;;;;;5090431;28;20470;-79
2022/05/09 07:20:42;;;;;;;14.20;5.83;;;12.00;99.90;;;;;;5090761;28;20401;-79
2022/05/09 07:23:10;;;;;;;15.45;5.70;;;12.00;99.90;;;;;;5090586;28;20458;-79
2022/05/09 07:25:37;;;;;;;14.18;5.22;;;12.20;99.90;;;;;;5091150;28;20400;-79
2022/05/09 07:28:04;;;;;;;15.20;5.55;;;12.30;99.90;;;;;;5108501;28;20427;-79
2022/05/09 07:30:30;;;;;;;14.15;4.90;;;12.40;99.90;;;;;;5090517;28;20948;-79
2022/05/09 07:32:55;;;;;;;12.37;4.67;;;12.50;99.90;;;;;;5108884;28;20464;-79
2022/05/09 07:35:22;;;;;;;13.93;5.45;;;12.60;99.90;;;;;;5109237;28;20396;-79
2022/05/09 07:37:48;;;;;;;15.43;5.10;;;12.60;99.90;;;;;;5090915;28;20948;-78
2022/05/09 07:40:16;;;;;;;14.90;4.63;;;12.70;99.90;;;;;;5108120;28;20465;-79
2022/05/09 07:42:44;;;;;;;12.88;4.78;;;12.70;99.90;;;;;;5108184;28;20400;-79
2022/05/09 07:45:12;;;;;;;14.35;5.13;;;12.70;99.90;;;;;;5108453;28;20499;-79
2022/05/09 07:47:39;;;;;;;12.82;5.30;;;12.80;99.90;;;;;;5108843;28;20439;-79
2022/05/09 07:50:06;;;;;;;14.20;4.25;;;13.00;99.90;;;;;;5108434;28;20441;-79
2022/05/09 07:52:32;;;;;;;11.40;4.75;;;13.00;99.90;;;;;;5108691;28;20416;-79
2022/05/09 07:54:57;;;;;;;13.57;4.57;;;13.10;99.90;;;;;;5108511;28;20636;-79
2022/05/09 07:57:23;;;;;;;11.02;4.72;;;13.20;99.90;;;;;;5108284;28;20757;-79
2022/05/09 07:59:48;;;;;;;14.47;5.03;;;13.20;99.90;;;;;;5090538;28;20405;-79
2022/05/09 08:02:14;;;;;;;12.07;5.15;;;13.30;99.90;;;;;;5108545;28;20400;-79
2022/05/09 08:04:40;;;;;;;12.93;5.00;;;13.30;99.90;;;;;;5090617;28;20487;-79
2022/05/09 08:07:06;;;;;;;14.63;4.50;;;13.40;99.90;;;;;;5090259;28;20400;-79
2022/05/09 08:09:32;;;;;;;11.45;4.93;;;13.50;99.90;;;;;;5108346;28;20893;-79
2022/05/09 08:11:58;;;;;;;13.83;5.13;;;13.60;99.90;;;;;;5108352;28;20424;-79
2022/05/09 08:14:25;;;;;;;13.15;5.18;;;13.60;99.90;;;;;;5090742;28;20789;-79
2022/05/09 08:16:51;;;;;;;13.98;5.03;;;13.70;99.90;;;;;;5108556;28;20483;-79
2022/05/09 08:19:17;;;;;;;13.90;4.55;;;13.80;99.90;;;;;;5089923;28;20440;-79
2022/05/09 08:21:47;;;;;;;13.32;4.78;;;13.80;99.90;;;;;;5108412;28;20392;-79
2022/05/09 08:24:13;;;;;;;12.87;5.10;;;13.90;99.90;;;;;;5108561;28;20403;-79
2022/05/09 08:26:39;;;;;;;10.87;4.20;;;14.00;99.90;;;;;;5108430;28;20428;-79
2022/05/09 08:29:05;;;;;;;10.57;4.38;;;14.10;99.90;;;;;;5107953;28;20428;-79
2022/05/09 08:31:30;;;;;;;12.38;4.43;;;14.20;99.90;;;;;;5089690;28;20428;-79
2022/05/09 08:33:57;;;;;;;9.80;4.43;;;14.20;99.90;;;;;;5090483;28;20396;-79
2022/05/09 08:39:08;;;;;;;10.75;4.70;;;14.40;99.90;;;;;;5108086;28;20396;-79
2022/05/09 08:41:56;;;;;;;12.13;4.32;;;14.50;99.90;;;;;;5108418;28;20439;-78
2022/05/09 08:44:27;;;;;;;11.87;4.60;;;14.70;99.90;;;;;;5108094;28;20408;-79
2022/05/09 08:47:20;;;;;;;10.48;4.38;;;14.90;99.90;;;;;;5088986;28;20409;-79
2022/05/09 08:50:31;;;;;;;15.07;4.40;;;15.00;99.90;;;;;;5089551;28;20968;-79
2022/05/09 08:53:01;;;;;;;11.90;4.20;;;15.10;99.90;;;;;;5035198;28;20797;-79
2022/05/09 08:55:35;;;;;;;12.48;3.92;;;15.30;99.90;;;;;;5072434;28;20410;-79
2022/05/09 08:58:09;;;;;;;11.65;4.10;;;15.50;99.90;;;;;;5090399;28;20460;-79
2022/05/09 09:00:37;;;;;;;10.70;4.05;;;15.60;99.90;;;;;;5072403;28;20497;-79
2022/05/09 09:03:31;;;;;;;8.90;3.13;;;15.80;99.80;;;;;;5090412;28;20409;-79
2022/05/09 09:06:05;;;;;;;10.27;3.38;;;15.90;98.10;;;;;;5071947;28;20410;-79
2022/05/09 09:08:57;;;;;;;11.52;4.50;;;16.00;98.30;;;;;;5090922;28;20402;-79
2022/05/09 09:11:55;;;;;;;10.97;4.57;;;16.10;99.90;;;;;;5071971;28;20432;-79
2022/05/09 09:14:41;;;;;;;13.10;4.70;;;16.30;99.90;;;;;;5071983;28;20402;-79
2022/05/09 09:17:19;;;;;;;12.10;4.85;;;16.40;99.50;;;;;;5072008;28;20752;-79
2022/05/09 09:20:08;;;;;;;13.73;5.40;;;16.50;99.40;;;;;;5072456;28;20531;-79
2022/05/09 09:23:02;;;;;;;12.32;5.13;;;16.70;99.90;;;;;;5072322;28;21117;-79
2022/05/09 09:25:55;;;;;;;12.93;5.15;;;17.10;99.90;;;;;;5072012;28;20982;-79
2022/05/09 09:28:56;;;;;;;12.67;4.80;;;17.70;99.90;;;;;;5071625;28;20468;-80
2022/05/09 09:31:36;;;;;;;13.77;5.00;;;18.20;98.90;;;;;;5054612;28;20483;-77
2022/05/09 09:34:33;;;;;;;13.80;5.97;;;18.80;97.70;;;;;;5089824;28;20452;-77
2022/05/09 09:37:08;;;;;;;11.55;4.75;;;19.10;97.40;;;;;;5089584;28;20406;-78
2022/05/09 09:39:34;;;;;;;12.88;4.75;;;19.60;96.30;;;;;;5089822;28;20475;-78
2022/05/09 09:42:00;;;;;;;11.70;4.78;;;19.90;95.20;;;;;;5089544;28;20390;-78
2022/05/09 09:44:27;;;;;;;10.73;4.67;;;20.30;95.40;;;;;;5089696;28;20865;-77
2022/05/09 09:47:04;;;;;;;9.23;4.05;;;20.50;93.60;;;;;;5056039;28;20763;-78
2022/05/09 09:49:31;;;;;;;8.88;3.97;;;20.60;93.10;;;;;;5090437;28;20402;-78
2022/05/09 09:51:57;;;;;;;10.67;4.50;;;20.90;92.50;;;;;;5106992;28;20508;-78
2022/05/09 09:54:28;;;;;;;8.83;4.40;;;21.10;91.30;;;;;;5092603;28;20434;-77
2022/05/09 09:56:54;;;;;;;11.15;5.00;;;21.30;90.30;;;;;;5110857;28;20424;-78
2022/05/09 09:59:23;;;;;;;10.70;4.83;;;21.40;89.10;;;;;;5110741;28;20770;-78
2022/05/09 10:02:11;;;;;;;10.85;4.55;;;21.60;84.20;;;;;;5092517;28;20408;-78
2022/05/09 10:04:37;;;;;;;9.43;4.33;;;21.60;85.60;;;;;;5111021;28;20411;-78
2022/05/09 10:07:10;;;;;;;11.75;4.30;;;21.70;82.90;;;;;;5110406;28;20396;-78
2022/05/09 10:10:05;;;;;;;11.70;4.60;;;21.90;83.50;;;;;;5092996;28;20957;-78
2022/05/09 10:12:32;;;;;;;10.57;4.45;;;22.10;79.00;;;;;;5110349;28;20428;-78
2022/05/09 10:15:00;;;;;;;11.73;4.80;;;22.20;78.30;;;;;;5109901;28;20920;-78
2022/05/09 10:17:25;;;;;;;11.70;5.10;;;22.30;77.10;;;;;;5110644;28;20392;-78
2022/05/09 10:19:53;;;;;;;11.13;5.30;;;22.40;78.10;;;;;;5110486;28;20397;-78
2022/05/09 10:25:24;;;;;;;12.57;5.33;;;22.70;75.00;;;;;;5110234;28;20396;-78
2022/05/09 10:28:12;;;;;;;10.75;4.30;;;22.80;75.30;;;;;;5110480;28;20425;-78
2022/05/09 10:30:42;;;;;;;11.73;4.78;;;23.00;73.00;;;;;;5091956;28;20417;-78
2022/05/09 10:33:35;;;;;;;11.15;4.40;;;23.20;72.50;;;;;;5109542;28;20446;-78
2022/05/09 10:36:11;;;;;;;14.38;4.43;;;23.40;71.80;;;;;;5109839;28;20404;-78
2022/05/09 10:38:43;;;;;;;10.60;4.60;;;23.50;71.30;;;;;;5110110;28;20546;-78
2022/05/09 10:41:17;;;;;;;9.73;3.73;;;23.80;71.70;;;;;;5109668;28;21202;-78
2022/05/09 10:43:50;;;;;;;11.38;4.22;;;23.90;67.40;;;;;;5109951;28;20400;-78
2022/05/09 10:46:17;;;;;;;10.95;4.07;;;23.90;68.20;;;;;;5109392;28;20416;-78
2022/05/09 10:49:05;;;;;;;13.55;4.50;;;23.80;66.70;;;;;;5108610;28;20409;-78
2022/05/09 10:51:40;;;;;;;9.00;3.40;;;23.90;66.50;;;;;;5109569;28;21519;-78
2022/05/09 10:54:28;;;;;;;8.65;3.58;;;24.00;67.10;;;;;;5109472;28;20424;-78
2022/05/09 10:57:25;;;;;;;9.15;3.72;;;24.10;65.40;;;;;;5109516;28;20400;-78
2022/05/09 10:59:53;;;;;;;9.57;3.88;;;24.30;65.30;;;;;;5109547;28;20961;-78
2022/05/09 11:02:31;;;;;;;9.32;3.90;;;24.40;63.20;;;;;;5109507;28;20397;-78
2022/05/09 11:04:56;;;;;;;8.48;3.58;;;24.40;63.20;;;;;;5109511;28;20436;-78
2022/05/09 11:07:35;;;;;;;11.13;3.63;;;24.50;62.20;;;;;;5109126;28;20424;-78
2022/05/09 11:10:18;;;;;;;9.13;2.95;;;24.70;63.80;;;;;;5109277;28;20408;-78
2022/05/09 11:13:13;;;;;;;7.77;2.40;;;25.00;63.60;;;;;;5109219;28;20422;-77
2022/05/09 11:15:52;;;;;;;8.35;2.42;;;25.10;59.70;;;;;;5079285;28;20413;-78
2022/05/09 11:18:28;;;;;;;6.07;2.23;;;25.20;57.30;;;;;;5091262;28;20412;-78
2022/05/09 11:21:30;;;;;;;9.10;2.60;;;25.30;56.80;;;;;;5109138;28;20400;-78
2022/05/09 11:24:25;;;;;;;7.63;1.90;;;25.40;56.20;;;;;;5108786;28;20408;-78
2022/05/09 11:27:09;;;;;;;8.30;2.40;;;25.60;57.00;;;;;;5002276;28;20409;-78
2022/05/09 11:29:51;;;;;;;9.13;2.63;;;25.70;54.90;;;;;;5108647;28;20503;-78
2022/05/09 11:32:41;;;;;;;8.07;3.03;;;25.90;54.40;;;;;;5108564;28;20572;-78
2022/05/09 11:35:25;;;;;;;6.73;2.77;;;26.10;53.30;;;;;;5108825;28;20476;-78
2022/05/09 11:38:26;;;;;;;8.03;2.70;;;26.00;52.70;;;;;;5108543;28;20446;-78
2022/05/09 11:41:29;;;;;;;8.18;2.38;;;26.10;53.70;;;;;;5108736;28;20416;-78
2022/05/09 11:44:06;;;;;;;7.25;2.50;;;26.30;53.40;;;;;;5073546;28;20473;-78
2022/05/09 11:46:50;;;;;;;8.00;2.30;;;26.50;51.50;;;;;;5108425;28;20440;-78
2022/05/09 11:49:52;;;;;;;7.00;2.40;;;26.40;52.40;;;;;;5089942;28;20429;-78
2022/05/09 11:52:23;;;;;;;7.93;2.60;;;26.50;49.30;;;;;;5107623;28;20424;-78
2022/05/09 11:54:50;;;;;;;7.05;2.10;;;26.40;49.80;;;;;;5089959;28;20774;-78
2022/05/09 11:57:33;;;;;;;8.98;2.45;;;26.50;49.00;;;;;;5073228;28;20401;-78
2022/05/09 12:00:04;;;;;;;7.38;2.28;;;26.50;48.40;;;;;;5087869;28;20406;-78
2022/05/09 12:02:41;;;;;;;5.90;1.85;;;26.60;50.10;;;;;;5070313;28;20402;-78
2022/05/09 12:05:25;;;;;;;7.47;2.40;;;26.80;49.20;;;;;;5052807;28;20406;-78
2022/05/09 12:08:15;;;;;;;5.38;1.92;;;26.70;47.90;;;;;;5070032;28;21315;-78
2022/05/09 12:10:50;;;;;;;8.60;2.90;;;26.70;48.70;;;;;;5043608;28;20413;-78
2022/05/09 12:13:41;;;;;;;7.00;2.13;;;26.80;48.90;;;;;;5087761;28;20442;-78
2022/05/09 12:16:08;;;;;;;7.45;2.30;;;27.00;48.10;;;;;;5087304;28;20407;-78
2022/05/09 12:18:54;;;;;;;9.18;2.92;;;27.10;49.00;;;;;;5070220;28;20939;-78
2022/05/09 12:21:22;;;;;;;7.40;2.30;;;27.40;49.20;;;;;;5087702;28;20409;-78
2022/05/09 12:23:50;;;;;;;8.27;2.45;;;27.60;49.10;;;;;;5053248;28;20405;-78
2022/05/09 12:26:31;;;;;;;9.88;3.08;;;27.70;47.90;;;;;;5071449;28;20500;-78
2022/05/09 12:29:12;;;;;;;8.23;2.57;;;27.80;48.70;;;;;;5073885;28;20418;-79
2022/05/09 12:31:51;;;;;;;6.25;1.60;;;27.90;48.40;;;;;;5091882;28;20478;-78
2022/05/09 12:34:21;;;;;;;5.30;1.43;;;27.90;48.00;;;;;;5091892;28;20409;-78
2022/05/09 12:36:47;;;;;;;6.18;1.70;;;28.10;47.00;;;;;;5091735;28;20429;-78
2022/05/09 12:39:31;;;;;;;4.50;1.60;;;28.20;46.80;;;;;;5091970;28;20445;-78
2022/05/09 12:42:00;;;;;;;6.60;1.85;;;28.30;45.70;;;;;;5091756;28;20421;-78
2022/05/09 12:44:33;;;;;;;6.87;1.57;;;28.40;46.10;;;;;;5091852;28;20477;-78
2022/05/09 12:47:12;;;;;;;8.27;1.75;;;28.40;45.70;;;;;;5091256;28;20405;-78
2022/05/09 12:49:53;;;;;;;6.35;1.48;;;28.50;44.60;;;;;;5091948;28;20511;-78
2022/05/09 12:52:23;;;;;;;6.95;2.03;;;28.40;46.20;;;;;;5073274;28;20430;-78
2022/05/09 12:57:38;;;;;;;4.90;1.57;;;28.50;45.30;;;;;;5093619;28;20402;-78
2022/05/09 13:00:15;;;;;;;6.55;1.52;;;28.60;44.90;;;;;;5111629;28;20916;-78
2022/05/09 13:02:41;;;;;;;7.28;1.80;;;28.60;44.00;;;;;;5111803;28;20396;-78
2022/05/09 13:05:08;;;;;;;8.20;2.00;;;28.70;43.80;;;;;;5111697;28;20905;-78
2022/05/09 13:07:53;;;;;;;9.43;2.30;;;28.90;43.20;;;;;;5111523;28;20449;-78
2022/05/09 13:10:18;;;;;;;6.53;2.05;;;29.10;45.50;;;;;;5111558;28;20400;-78
2022/05/09 13:12:44;;;;;;;8.27;2.80;;;29.30;44.50;;;;;;5111682;28;20424;-78
2022/05/09 13:15:18;;;;;;;7.50;2.40;;;29.30;44.70;;;;;;5111767;28;20393;-78
2022/05/09 13:17:48;;;;;;;9.32;2.38;;;29.30;46.40;;;;;;5111955;28;20405;-78